createdAt,value
2023-05-14T00:01:02.965Z,10.70
2023-05-14T00:03:29.791Z,10.69
2023-05-14T00:05:56.594Z,10.62
2023-05-14T00:08:23.393Z,10.58
2023-05-14T00:10:49.993Z,10.51
2023-05-14T00:13:16.622Z,10.48
2023-05-14T00:15:43.536Z,10.50
2023-05-14T00:18:12.181Z,10.57
2023-05-14T00:20:38.904Z,10.55
2023-05-14T00:23:05.509Z,10.61
2023-05-14T00:25:32.222Z,10.65
2023-05-14T00:27:58.889Z,10.68
2023-05-14T00:30:25.772Z,10.69
2023-05-14T00:32:53.495Z,10.71
2023-05-14T00:35:21.392Z,10.70
2023-05-14T00:37:48.285Z,10.74
2023-05-14T00:40:15.490Z,10.76
2023-05-14T00:42:42.091Z,10.76
2023-05-14T00:45:09.146Z,10.79
2023-05-14T00:47:36.476Z,10.75
2023-05-14T00:50:04.621Z,10.75
2023-05-14T00:52:32.130Z,10.80
2023-05-14T00:54:59.298Z,10.79
2023-05-14T00:57:26.284Z,10.79
2023-05-14T00:59:53.063Z,10.79
2023-05-14T01:02:19.776Z,10.68
2023-05-14T01:04:46.892Z,10.66
2023-05-14T01:07:38.066Z,10.64
2023-05-14T01:10:23.534Z,10.66
2023-05-14T01:13:20.860Z,10.67
2023-05-14T01:15:47.845Z,10.65
2023-05-14T01:18:18.358Z,10.64
2023-05-14T01:20:45.870Z,10.59
2023-05-14T01:23:12.524Z,10.55
2023-05-14T01:25:39.119Z,10.47
2023-05-14T01:28:34.355Z,10.43
2023-05-14T01:31:08.042Z,10.38
2023-05-14T01:33:36.663Z,10.35
2023-05-14T01:36:03.916Z,10.32
2023-05-14T01:38:33.913Z,10.26
2023-05-14T01:41:01.188Z,10.33
2023-05-14T01:43:29.142Z,10.35
2023-05-14T01:45:56.034Z,10.40
2023-05-14T01:48:22.712Z,10.47
2023-05-14T01:50:49.352Z,10.50
2023-05-14T01:53:15.953Z,10.54
2023-05-14T01:55:42.580Z,10.59
2023-05-14T01:58:09.579Z,10.52
2023-05-14T02:00:36.284Z,10.51
2023-05-14T02:03:02.956Z,10.44
2023-05-14T02:05:29.618Z,10.41
2023-05-14T02:07:56.271Z,10.40
2023-05-14T02:10:23.133Z,10.45
2023-05-14T02:12:49.991Z,10.49
2023-05-14T02:15:16.738Z,10.43
2023-05-14T02:17:43.635Z,10.33
2023-05-14T02:20:11.340Z,10.32
2023-05-14T02:22:38.130Z,10.29
2023-05-14T02:25:05.475Z,10.21
2023-05-14T02:27:32.199Z,10.15
2023-05-14T02:30:00.862Z,10.13
2023-05-14T02:32:28.395Z,10.08
2023-05-14T02:34:55.295Z,10.11
2023-05-14T02:37:22.004Z,10.13
2023-05-14T02:39:49.346Z,10.15
2023-05-14T02:42:16.008Z,10.14
2023-05-14T02:44:42.621Z,10.13
2023-05-14T02:47:09.369Z,10.13
2023-05-14T02:49:36.096Z,10.13
2023-05-14T02:52:03.553Z,10.12
2023-05-14T02:54:30.307Z,10.03
2023-05-14T02:56:57.102Z,9.96
2023-05-14T02:59:24.874Z,9.86
2023-05-14T03:01:52.055Z,9.76
2023-05-14T03:04:19.095Z,9.69
2023-05-14T03:06:45.737Z,9.60
2023-05-14T03:09:12.454Z,9.50
2023-05-14T03:11:39.127Z,9.46
2023-05-14T03:14:05.754Z,9.37
2023-05-14T03:16:32.589Z,9.30
2023-05-14T03:18:59.393Z,9.25
2023-05-14T03:21:26.301Z,9.24
2023-05-14T03:23:53.618Z,9.19
2023-05-14T03:26:21.587Z,9.19
2023-05-14T03:28:48.598Z,9.15
2023-05-14T03:31:15.411Z,9.13
2023-05-14T03:33:42.229Z,9.11
2023-05-14T03:36:09.393Z,9.10
2023-05-14T03:38:36.003Z,9.11
2023-05-14T03:41:02.673Z,9.10
2023-05-14T03:43:29.397Z,9.10
2023-05-14T03:45:56.139Z,9.14
2023-05-14T03:48:22.971Z,9.14
2023-05-14T03:50:49.744Z,9.14
2023-05-14T03:53:16.793Z,9.11
2023-05-14T03:55:45.389Z,9.08
2023-05-14T03:58:14.241Z,9.04
2023-05-14T04:00:42.333Z,9.01
2023-05-14T04:03:10.428Z,8.98
2023-05-14T04:05:37.073Z,8.92
2023-05-14T04:08:03.872Z,8.90
2023-05-14T04:10:32.080Z,8.87
2023-05-14T04:12:59.633Z,8.81
2023-05-14T04:15:31.052Z,8.83
2023-05-14T04:17:57.816Z,8.86
2023-05-14T04:20:24.693Z,8.93
2023-05-14T04:22:51.491Z,8.98
2023-05-14T04:25:18.550Z,9.01
2023-05-14T04:27:45.346Z,9.09
2023-05-14T04:30:12.481Z,9.16
2023-05-14T04:32:39.387Z,9.23
2023-05-14T04:35:06.753Z,9.30
2023-05-14T04:37:33.361Z,9.40
2023-05-14T04:40:00.362Z,9.39
2023-05-14T04:42:27.110Z,9.43
2023-05-14T04:44:53.850Z,9.54
2023-05-14T04:47:21.124Z,9.56
2023-05-14T04:49:47.948Z,9.58
2023-05-14T04:52:14.821Z,9.62
2023-05-14T04:54:41.525Z,9.70
2023-05-14T04:57:08.116Z,9.78
2023-05-14T04:59:34.771Z,9.92
2023-05-14T05:02:01.408Z,9.99
2023-05-14T05:04:28.057Z,10.05
2023-05-14T05:06:54.681Z,10.14
2023-05-14T05:09:21.272Z,10.27
2023-05-14T05:11:47.965Z,10.32
2023-05-14T05:14:14.606Z,10.38
2023-05-14T05:16:41.303Z,10.48
2023-05-14T05:19:07.998Z,10.55
2023-05-14T05:21:35.251Z,10.65
2023-05-14T05:24:01.920Z,10.76
2023-05-14T05:26:28.658Z,10.87
2023-05-14T05:28:55.318Z,10.97
2023-05-14T05:31:21.981Z,11.08
2023-05-14T05:33:48.631Z,11.18
2023-05-14T05:36:15.338Z,11.29
2023-05-14T05:38:42.167Z,11.41
2023-05-14T05:41:08.758Z,11.59
2023-05-14T05:43:35.460Z,11.73
2023-05-14T05:46:02.380Z,11.86
2023-05-14T05:48:29.033Z,11.93
2023-05-14T05:50:55.837Z,12.00
2023-05-14T05:53:22.546Z,12.09
2023-05-14T05:55:51.439Z,12.17
2023-05-14T05:58:19.029Z,12.25
2023-05-14T06:00:47.084Z,12.35
2023-05-14T06:03:14.036Z,12.46
2023-05-14T06:05:40.952Z,12.58
2023-05-14T06:08:07.649Z,12.67
2023-05-14T06:10:36.202Z,12.78
2023-05-14T06:13:03.134Z,12.90
2023-05-14T06:15:29.783Z,12.93
2023-05-14T06:17:56.401Z,13.09
2023-05-14T06:20:23.267Z,13.21
2023-05-14T06:22:50.196Z,13.32
2023-05-14T06:25:16.856Z,13.36
2023-05-14T06:27:44.041Z,13.41
2023-05-14T06:30:11.312Z,13.53
2023-05-14T06:32:37.976Z,13.57
2023-05-14T06:35:05.188Z,13.62
2023-05-14T06:37:31.826Z,13.79
2023-05-14T06:39:58.652Z,13.87
2023-05-14T06:42:26.567Z,13.93
2023-05-14T06:44:53.355Z,14.00
2023-05-14T06:47:19.899Z,14.04
2023-05-14T06:49:46.540Z,14.14
2023-05-14T06:52:13.165Z,14.24
2023-05-14T06:54:39.828Z,14.34
2023-05-14T06:57:06.444Z,14.45
2023-05-14T06:59:33.295Z,14.53
2023-05-14T07:02:00.079Z,14.64
2023-05-14T07:04:27.291Z,14.75
2023-05-14T07:06:54.201Z,14.89
2023-05-14T07:09:20.821Z,15.07
2023-05-14T07:11:48.239Z,15.10
2023-05-14T07:14:14.896Z,15.14
2023-05-14T07:16:42.727Z,15.11
2023-05-14T07:19:09.415Z,15.09
2023-05-14T07:21:36.244Z,15.10
2023-05-14T07:24:03.230Z,15.15
2023-05-14T07:26:30.506Z,15.21
2023-05-14T07:28:57.314Z,15.20
2023-05-14T07:31:24.254Z,15.25
2023-05-14T07:33:50.919Z,15.41
2023-05-14T07:36:17.769Z,15.33
2023-05-14T07:38:44.565Z,15.38
2023-05-14T07:41:12.741Z,15.55
2023-05-14T07:43:40.594Z,15.73
2023-05-14T07:46:07.285Z,15.77
2023-05-14T07:48:34.172Z,15.82
2023-05-14T07:51:00.861Z,15.75
2023-05-14T07:53:27.438Z,15.78
2023-05-14T07:55:54.580Z,15.81
2023-05-14T07:58:21.227Z,15.88
2023-05-14T08:00:48.170Z,15.90
2023-05-14T08:03:15.090Z,15.94
2023-05-14T08:05:41.875Z,16.15
2023-05-14T08:08:08.493Z,16.28
2023-05-14T08:10:35.322Z,16.49
2023-05-14T08:13:02.019Z,16.59
2023-05-14T08:15:28.755Z,16.75
2023-05-14T08:17:55.785Z,16.76
2023-05-14T08:20:23.098Z,16.86
2023-05-14T08:22:49.879Z,16.80
2023-05-14T08:25:16.640Z,16.81
2023-05-14T08:27:43.301Z,16.85
2023-05-14T08:30:10.288Z,17.06
2023-05-14T08:32:38.671Z,17.35
2023-05-14T08:35:05.790Z,17.52
2023-05-14T08:37:32.512Z,17.81
2023-05-14T08:39:59.305Z,17.98
2023-05-14T08:42:26.990Z,18.12
2023-05-14T08:45:03.545Z,18.25
2023-05-14T08:47:30.863Z,18.19
2023-05-14T08:50:06.322Z,17.62
2023-05-14T08:52:34.660Z,17.59
2023-05-14T08:55:04.197Z,17.64
2023-05-14T08:57:32.670Z,17.70
2023-05-14T08:59:59.581Z,17.69
2023-05-14T09:02:31.482Z,17.60
2023-05-14T09:05:00.442Z,17.52
2023-05-14T09:07:28.085Z,17.60
2023-05-14T09:09:55.782Z,17.89
2023-05-14T09:12:22.832Z,17.93
2023-05-14T09:14:50.589Z,17.62
2023-05-14T09:17:18.871Z,17.66
2023-05-14T09:19:53.057Z,17.71
2023-05-14T09:22:21.172Z,18.13
2023-05-14T09:25:05.696Z,17.81
2023-05-14T09:27:33.293Z,17.49
2023-05-14T09:30:13.532Z,17.35
2023-05-14T09:32:44.321Z,17.33
2023-05-14T09:35:11.932Z,17.91
2023-05-14T09:37:42.184Z,21.11
2023-05-14T09:40:09.544Z,23.79
2023-05-14T09:42:36.162Z,23.18
2023-05-14T09:45:04.726Z,23.78
2023-05-14T09:47:32.714Z,24.74
2023-05-14T09:49:59.554Z,23.70
2023-05-14T09:52:26.430Z,22.51
2023-05-14T09:54:53.474Z,22.48
2023-05-14T09:57:20.837Z,22.05
2023-05-14T09:59:47.633Z,22.35
2023-05-14T10:02:26.436Z,22.04
2023-05-14T10:04:54.801Z,21.53
2023-05-14T10:07:29.475Z,21.41
2023-05-14T10:10:01.807Z,21.37
2023-05-14T10:12:38.699Z,20.87
2023-05-14T10:15:12.867Z,21.33
2023-05-14T10:17:41.168Z,22.97
2023-05-14T10:20:10.938Z,22.17
2023-05-14T10:22:37.664Z,20.86
2023-05-14T10:25:05.169Z,20.08
2023-05-14T10:27:32.275Z,19.61
2023-05-14T10:29:59.068Z,19.33
2023-05-14T10:32:27.581Z,19.11
2023-05-14T10:34:54.298Z,18.74
2023-05-14T10:37:22.633Z,18.66
2023-05-14T10:39:59.526Z,18.34
2023-05-14T10:42:28.825Z,18.36
2023-05-14T10:44:58.799Z,18.68
2023-05-14T10:47:29.450Z,18.65
2023-05-14T10:49:56.812Z,18.35
2023-05-14T10:52:24.123Z,18.23
2023-05-14T10:55:03.680Z,18.21
2023-05-14T10:57:31.957Z,19.23
2023-05-14T11:00:01.166Z,20.97
2023-05-14T11:02:28.775Z,22.38
2023-05-14T11:05:08.544Z,22.73
2023-05-14T11:07:37.908Z,21.95
2023-05-14T11:10:09.895Z,22.42
2023-05-14T11:12:40.874Z,23.96
2023-05-14T11:15:09.912Z,25.05
2023-05-14T11:17:37.989Z,26.01
2023-05-14T11:20:06.767Z,27.09
2023-05-14T11:22:34.583Z,26.59
2023-05-14T11:25:01.385Z,27.38
2023-05-14T11:27:28.406Z,27.65
2023-05-14T11:29:55.960Z,28.57
2023-05-14T11:32:22.785Z,28.96
2023-05-14T11:34:49.769Z,27.97
2023-05-14T11:37:16.827Z,27.05
2023-05-14T11:39:54.791Z,25.05
2023-05-14T11:42:22.661Z,24.61
2023-05-14T11:44:51.659Z,25.02
2023-05-14T11:47:21.071Z,25.64
2023-05-14T11:49:48.673Z,26.03
2023-05-14T11:52:19.226Z,26.52
2023-05-14T11:54:46.780Z,27.18
2023-05-14T11:57:16.718Z,27.72
2023-05-14T11:59:44.758Z,27.43
2023-05-14T12:02:17.387Z,26.71
2023-05-14T12:04:49.358Z,26.18
2023-05-14T12:07:16.450Z,25.65
2023-05-14T12:09:51.558Z,24.99
2023-05-14T12:12:22.581Z,24.10
2023-05-14T12:14:50.259Z,23.15
2023-05-14T12:17:22.195Z,22.82
2023-05-14T12:19:51.434Z,22.62
2023-05-14T12:22:21.884Z,22.66
2023-05-14T12:24:56.632Z,22.66
2023-05-14T12:27:28.607Z,22.69
2023-05-14T12:30:19.873Z,22.23
2023-05-14T12:32:52.870Z,22.86
2023-05-14T12:35:21.862Z,22.94
2023-05-14T12:37:48.560Z,22.84
2023-05-14T12:40:15.322Z,22.55
2023-05-14T12:42:42.167Z,22.25
2023-05-14T12:45:09.079Z,22.14
2023-05-14T12:47:36.911Z,21.45
2023-05-14T12:50:04.716Z,21.42
2023-05-14T12:55:01.453Z,21.78
2023-05-14T12:57:29.844Z,22.15
2023-05-14T12:59:57.154Z,22.16
2023-05-14T13:02:24.580Z,22.76
2023-05-14T13:04:51.257Z,23.43
2023-05-14T13:07:17.891Z,23.68
2023-05-14T13:09:44.532Z,23.62
2023-05-14T13:12:11.130Z,22.73
2023-05-14T13:14:37.818Z,22.37
2023-05-14T13:17:05.126Z,21.88
2023-05-14T13:19:31.910Z,21.38
2023-05-14T13:21:58.515Z,20.80
2023-05-14T13:24:25.184Z,20.28
2023-05-14T13:26:51.790Z,19.85
2023-05-14T13:29:18.439Z,19.68
2023-05-14T13:31:45.022Z,19.75
2023-05-14T13:34:13.070Z,19.79
2023-05-14T13:36:42.172Z,19.82
2023-05-14T13:39:09.842Z,19.80
2023-05-14T13:41:37.805Z,19.72
2023-05-14T13:44:04.919Z,19.69
2023-05-14T13:46:31.584Z,19.66
2023-05-14T13:48:58.347Z,19.64
2023-05-14T13:51:25.160Z,19.55
2023-05-14T13:53:51.798Z,19.35
2023-05-14T13:56:18.689Z,19.23
2023-05-14T13:58:46.282Z,19.23
2023-05-14T14:01:13.035Z,19.24
2023-05-14T14:03:39.697Z,19.34
2023-05-14T14:06:06.388Z,19.49
2023-05-14T14:08:39.607Z,19.70
2023-05-14T14:11:06.274Z,19.92
2023-05-14T14:13:32.876Z,20.05
2023-05-14T14:15:59.522Z,19.77
2023-05-14T14:18:32.570Z,19.69
2023-05-14T14:20:59.197Z,19.70
2023-05-14T14:23:25.985Z,19.69
2023-05-14T14:25:52.630Z,19.63
2023-05-14T14:28:19.481Z,19.62
2023-05-14T14:30:46.278Z,19.61
2023-05-14T14:33:12.910Z,19.50
2023-05-14T14:35:40.037Z,19.35
2023-05-14T14:38:06.614Z,19.22
2023-05-14T14:40:34.398Z,19.04
2023-05-14T14:43:02.065Z,18.81
2023-05-14T14:45:29.196Z,18.64
2023-05-14T14:48:37.435Z,18.43
2023-05-14T14:51:06.097Z,18.28
2023-05-14T14:53:33.424Z,18.23
2023-05-14T14:56:01.017Z,18.18
2023-05-14T14:58:28.397Z,18.11
2023-05-14T15:00:56.347Z,18.12
2023-05-14T15:03:24.121Z,18.21
2023-05-14T15:05:52.191Z,18.24
2023-05-14T15:08:19.233Z,18.26
2023-05-14T15:10:46.357Z,18.27
2023-05-14T15:13:13.303Z,18.31
2023-05-14T15:15:39.879Z,18.24
2023-05-14T15:18:06.573Z,18.13
2023-05-14T15:20:33.449Z,18.02
2023-05-14T15:23:00.095Z,18.05
2023-05-14T15:25:27.184Z,18.05
2023-05-14T15:27:53.919Z,18.03
2023-05-14T15:30:20.900Z,17.96
2023-05-14T15:32:47.667Z,17.91
2023-05-14T15:35:14.503Z,17.79
2023-05-14T15:37:43.457Z,17.76
2023-05-14T15:40:11.379Z,17.76
2023-05-14T15:42:39.216Z,17.56
2023-05-14T15:45:06.118Z,17.62
2023-05-14T15:47:32.811Z,17.66
2023-05-14T15:49:59.927Z,17.70
2023-05-14T15:52:26.933Z,17.71
2023-05-14T15:54:54.294Z,17.74
2023-05-14T15:57:20.932Z,17.78
2023-05-14T15:59:47.560Z,17.80
2023-05-14T16:02:15.355Z,17.77
2023-05-14T16:04:41.997Z,17.69
2023-05-14T16:07:12.409Z,17.73
2023-05-14T16:09:39.433Z,17.75
2023-05-14T16:12:07.356Z,17.78
2023-05-14T16:14:35.569Z,17.79
2023-05-14T16:17:02.603Z,17.78
2023-05-14T16:19:29.314Z,17.75
2023-05-14T16:21:55.900Z,17.85
2023-05-14T16:24:22.491Z,17.84
2023-05-14T16:26:49.430Z,17.81
2023-05-14T16:29:16.920Z,17.74
2023-05-14T16:31:43.789Z,17.68
2023-05-14T16:34:10.617Z,17.62
2023-05-14T16:36:37.418Z,17.46
2023-05-14T16:39:08.149Z,17.35
2023-05-14T16:41:38.409Z,17.21
2023-05-14T16:44:05.102Z,17.17
2023-05-14T16:46:32.399Z,16.96
2023-05-14T16:48:59.316Z,16.92
2023-05-14T16:51:25.948Z,16.76
2023-05-14T16:53:53.984Z,16.65
2023-05-14T16:56:22.465Z,16.62
2023-05-14T16:58:49.259Z,16.56
2023-05-14T17:01:15.925Z,16.53
2023-05-14T17:03:43.575Z,16.51
2023-05-14T17:06:10.411Z,16.47
2023-05-14T17:08:37.052Z,16.48
2023-05-14T17:11:05.880Z,16.48
2023-05-14T17:13:33.083Z,16.48
2023-05-14T17:16:00.587Z,16.52
2023-05-14T17:18:27.324Z,16.54
2023-05-14T17:20:53.961Z,16.51
2023-05-14T17:23:20.688Z,16.45
2023-05-14T17:25:47.332Z,16.44
2023-05-14T17:28:14.078Z,16.37
2023-05-14T17:30:41.115Z,16.37
2023-05-14T17:33:08.065Z,16.40
2023-05-14T17:35:36.262Z,16.38
2023-05-14T17:38:03.562Z,16.33
2023-05-14T17:40:30.286Z,16.28
2023-05-14T17:42:56.890Z,16.18
2023-05-14T17:45:23.952Z,16.05
2023-05-14T17:47:51.525Z,16.01
2023-05-14T17:50:18.811Z,15.93
2023-05-14T17:52:46.179Z,15.91
2023-05-14T17:55:13.176Z,15.91
2023-05-14T17:57:39.943Z,15.92
2023-05-14T18:00:07.667Z,15.87
2023-05-14T18:02:38.417Z,15.82
2023-05-14T18:05:06.012Z,15.73
2023-05-14T18:07:32.793Z,15.71
2023-05-14T18:09:59.445Z,15.66
2023-05-14T18:12:26.744Z,15.64
2023-05-14T18:14:53.750Z,15.54
2023-05-14T18:17:20.463Z,15.48
2023-05-14T18:19:48.280Z,15.40
2023-05-14T18:22:15.537Z,15.33
2023-05-14T18:24:44.125Z,15.33
2023-05-14T18:27:11.109Z,15.27
2023-05-14T18:29:37.862Z,15.20
2023-05-14T18:32:05.081Z,15.14
2023-05-14T18:34:32.288Z,15.12
2023-05-14T18:36:58.949Z,15.05
2023-05-14T18:39:26.414Z,15.00
2023-05-14T18:41:53.211Z,14.89
2023-05-14T18:44:20.162Z,14.82
2023-05-14T18:46:46.902Z,14.79
2023-05-14T18:49:13.563Z,14.77
2023-05-14T18:51:40.295Z,14.73
2023-05-14T18:54:06.914Z,14.64
2023-05-14T18:56:34.777Z,14.60
2023-05-14T18:59:02.065Z,14.53
2023-05-14T19:01:28.724Z,14.43
2023-05-14T19:03:56.152Z,14.37
2023-05-14T19:06:22.963Z,14.26
2023-05-14T19:08:50.411Z,14.14
2023-05-14T19:11:18.160Z,14.06
2023-05-14T19:13:46.725Z,14.04
2023-05-14T19:16:13.551Z,13.92
2023-05-14T19:18:40.465Z,13.86
2023-05-14T19:21:07.072Z,13.84
2023-05-14T19:23:33.745Z,13.74
2023-05-14T19:26:01.144Z,13.64
2023-05-14T19:28:28.088Z,13.61
2023-05-14T19:30:54.776Z,13.54
2023-05-14T19:33:21.469Z,13.48
2023-05-14T19:35:48.147Z,13.44
2023-05-14T19:38:15.057Z,13.38
2023-05-14T19:40:42.987Z,13.33
2023-05-14T19:43:11.780Z,13.28
2023-05-14T19:45:39.288Z,13.23
2023-05-14T19:48:06.660Z,13.16
2023-05-14T19:50:34.306Z,13.12
2023-05-14T19:53:01.184Z,13.09
2023-05-14T19:55:27.990Z,13.08
2023-05-14T19:57:54.633Z,13.09
2023-05-14T20:00:22.834Z,13.03
2023-05-14T20:02:49.610Z,12.98
2023-05-14T20:05:16.483Z,12.88
2023-05-14T20:07:43.806Z,12.90
2023-05-14T20:10:10.935Z,12.89
2023-05-14T20:12:37.575Z,12.84
2023-05-14T20:15:05.412Z,12.77
2023-05-14T20:17:32.117Z,12.71
2023-05-14T20:19:58.928Z,12.71
2023-05-14T20:22:25.665Z,12.75
2023-05-14T20:24:52.712Z,12.70
2023-05-14T20:27:19.493Z,12.61
2023-05-14T20:29:46.913Z,12.58
2023-05-14T20:32:13.785Z,12.55
2023-05-14T20:34:40.379Z,12.55
2023-05-14T20:37:08.027Z,12.54
2023-05-14T20:39:34.795Z,12.50
2023-05-14T20:42:01.549Z,12.44
2023-05-14T20:44:28.120Z,12.42
2023-05-14T20:46:55.018Z,12.43
2023-05-14T20:49:21.606Z,12.41
2023-05-14T20:51:48.210Z,12.35
2023-05-14T20:54:14.827Z,12.38
2023-05-14T20:56:41.473Z,12.36
2023-05-14T20:59:08.228Z,12.40
2023-05-14T21:01:35.015Z,12.37
2023-05-14T21:04:01.682Z,12.28
2023-05-14T21:06:28.434Z,12.27
2023-05-14T21:08:55.978Z,12.25
2023-05-14T21:11:23.085Z,12.21
2023-05-14T21:13:49.834Z,12.20
2023-05-14T21:16:16.582Z,12.17
2023-05-14T21:18:44.012Z,12.17
2023-05-14T21:21:10.714Z,12.14
2023-05-14T21:23:37.292Z,12.15
2023-05-14T21:26:04.025Z,12.18
2023-05-14T21:28:31.387Z,12.13
2023-05-14T21:30:58.098Z,12.09
2023-05-14T21:33:24.805Z,12.08
2023-05-14T21:35:51.642Z,12.07
2023-05-14T21:38:18.355Z,12.09
2023-05-14T21:40:45.081Z,12.09
2023-05-14T21:43:11.707Z,12.08
2023-05-14T21:45:38.981Z,12.04
2023-05-14T21:48:05.890Z,12.03
2023-05-14T21:50:32.547Z,12.03
2023-05-14T21:52:59.096Z,11.97
2023-05-14T21:55:27.659Z,11.91
2023-05-14T21:57:54.669Z,11.89
2023-05-14T22:00:24.287Z,11.84
2023-05-14T22:02:52.943Z,11.82
2023-05-14T22:05:20.581Z,11.75
2023-05-14T22:07:47.496Z,11.72
2023-05-14T22:10:15.219Z,11.66
2023-05-14T22:12:43.781Z,11.66
2023-05-14T22:15:11.239Z,11.71
2023-05-14T22:17:38.473Z,11.72
2023-05-14T22:20:06.827Z,11.77
2023-05-14T22:22:34.335Z,11.76
2023-05-14T22:25:01.321Z,11.78
2023-05-14T22:27:28.056Z,11.80
2023-05-14T22:29:55.230Z,11.89
2023-05-14T22:32:21.971Z,11.92
2023-05-14T22:34:48.658Z,11.91
2023-05-14T22:37:15.675Z,11.96
2023-05-14T22:39:42.857Z,11.97
2023-05-14T22:42:09.614Z,11.97
2023-05-14T22:44:37.043Z,11.95
2023-05-14T22:47:07.256Z,11.92
2023-05-14T22:49:33.959Z,11.92
2023-05-14T22:52:01.295Z,11.87
2023-05-14T22:54:27.909Z,11.93
2023-05-14T22:56:54.584Z,11.94
2023-05-14T22:59:23.441Z,11.96
2023-05-14T23:01:50.532Z,11.95
2023-05-14T23:04:17.253Z,11.92
2023-05-14T23:06:44.405Z,11.88
2023-05-14T23:09:11.009Z,11.91
2023-05-14T23:11:37.726Z,11.89
2023-05-14T23:14:04.311Z,11.82
2023-05-14T23:16:31.832Z,11.75
2023-05-14T23:18:58.738Z,11.65
2023-05-14T23:21:25.666Z,11.59
2023-05-14T23:23:52.365Z,11.54
2023-05-14T23:26:19.063Z,11.48
2023-05-14T23:28:47.224Z,11.42
2023-05-14T23:31:13.976Z,11.39
2023-05-14T23:33:40.697Z,11.41
2023-05-14T23:36:07.969Z,11.44
2023-05-14T23:38:34.817Z,11.38
2023-05-14T23:41:01.782Z,11.27
2023-05-14T23:43:28.458Z,11.19
2023-05-14T23:45:55.144Z,11.06
2023-05-14T23:48:22.274Z,10.99
2023-05-14T23:50:49.051Z,10.93
2023-05-14T23:53:15.708Z,10.92
2023-05-14T23:55:42.421Z,10.90
2023-05-14T23:58:09.195Z,10.86
